Accueil
METAR-TAF:

METAR-TAF

Aéroports :

Aéroport international de Luang Prabang

Luang Prabang, Laos

latitude: 19-53N, longitude: 102-08E, altitude: 305 m

Observation

Le bulletin a été fait il y a 9 heures et 8 minutes, à 13:00 UTC
Vent 2 kt de nord-ouest
Température 28°C
Humidité 84%
Pression 1008 hPa
Visibilité 10 km ou plus
Nuages épars à une hauteur de 1700 ft
Nuages fragmentés à une hauteur de 6000 ft

METAR: VLLB 231300Z 32002KT 9999 SCT017 BKN060 28/25 Q1008 NOSIG

Heure: 05:08 (22:08 UTC)

Prévision

Le bulletin a été fait il y a 5 heures et 8 minutes, à 17:00 UTC
Prévision valable du 23 à 18 UTC au 24 à 18 UTC
Vent 4 kt de sud/sud-est
Visibilité: 5000 m
Nuages épars à une hauteur de 1300 ft
Ciel couvert à une hauteur de 7000 ft
pluie

TAF: VLLB 231700Z 2318/2418 16004KT 5000 RA SCT013 OVC070

Observations et prévisions météorologiques de plus de 4000 aéroports (messages METAR et TAF).

Les stations disponibles sont représentées par des disques jaunes et rouges sur la carte.

Passer la souris dessus pour voir le nom de la station.

Cliquer dessus pour voir les observations et prévisions météorologiques.

Pour changer de carte: cliquez sur les boutons verts avec une croix noire pour zoomer, sur le bouton vert avec un tiret pour effectuer un zoom arrière, ou sur les flèches vertes pour les cartes adjacentes.


METAR-TAF: